Time;durP1;ratioP1;P1;durP2;ratioP2;P2;SDS_P1;SDS_P2;PMS_P1;PMS_P2;Temp;Humidity;BMP_temperature;BMP_pressure;BME280_temperature;BME280_humidity;BME280_pressure;Samples;Min_cycle;Max_cycle;Signal;HPM_P1;HPM_P2
2023/06/10 00:02:07;;;;;;;8.32;6.60;;;18.90;67.30;;;;;;4996103;28;20050;-78
2023/06/10 00:04:36;;;;;;;10.10;6.75;;;18.90;67.40;;;;;;4999893;28;20038;-78
2023/06/10 00:07:03;;;;;;;8.00;6.10;;;18.80;67.60;;;;;;4999542;28;20038;-68
2023/06/10 00:09:30;;;;;;;8.77;6.25;;;18.70;67.70;;;;;;4997448;28;20512;-68
2023/06/10 00:11:59;;;;;;;8.52;6.28;;;18.70;67.80;;;;;;4997050;28;20077;-76
2023/06/10 00:14:27;;;;;;;7.83;6.10;;;18.70;68.00;;;;;;4991355;28;20043;-76
2023/06/10 00:16:55;;;;;;;8.73;6.00;;;18.70;68.10;;;;;;4995668;28;20046;-80
2023/06/10 00:19:25;;;;;;;7.53;6.03;;;18.60;68.10;;;;;;4997871;28;20112;-79
2023/06/10 00:21:53;;;;;;;7.93;6.13;;;18.60;68.20;;;;;;4994193;28;21004;-68
2023/06/10 00:24:20;;;;;;;7.35;5.93;;;18.60;68.20;;;;;;4995807;28;20056;-69
2023/06/10 00:26:46;;;;;;;7.45;6.03;;;18.60;68.40;;;;;;4988990;28;20057;-79
2023/06/10 00:29:14;;;;;;;7.72;6.20;;;18.50;68.70;;;;;;4987935;28;20053;-77
2023/06/10 00:31:42;;;;;;;7.40;6.10;;;18.50;68.70;;;;;;4992476;28;20065;-66
2023/06/10 00:34:09;;;;;;;8.93;6.50;;;18.50;68.80;;;;;;4991216;28;20454;-66
2023/06/10 00:36:36;;;;;;;8.13;6.05;;;18.50;69.00;;;;;;4991382;28;20046;-66
2023/06/10 00:39:04;;;;;;;8.18;6.15;;;18.40;69.20;;;;;;4989730;28;20133;-66
2023/06/10 00:41:31;;;;;;;7.38;5.72;;;18.40;69.30;;;;;;4991718;28;20055;-61
2023/06/10 00:43:58;;;;;;;8.10;5.90;;;18.30;69.40;;;;;;4985506;28;20058;-61
2023/06/10 00:46:26;;;;;;;8.40;6.55;;;18.30;69.40;;;;;;4996117;28;20046;-79
2023/06/10 00:48:57;;;;;;;8.10;6.68;;;18.30;69.40;;;;;;4989417;28;20132;-78
2023/06/10 00:51:25;;;;;;;7.47;6.28;;;18.30;69.30;;;;;;4991394;28;20050;-79
2023/06/10 00:53:53;;;;;;;10.77;6.80;;;18.30;69.30;;;;;;4992196;28;20054;-79
2023/06/10 00:56:21;;;;;;;7.60;6.20;;;18.30;69.30;;;;;;4978137;28;20050;-68
2023/06/10 00:58:49;;;;;;;7.43;6.28;;;18.20;69.40;;;;;;4989607;28;20069;-68
2023/06/10 01:01:16;;;;;;;8.48;6.40;;;18.10;69.70;;;;;;4986605;28;20046;-66
2023/06/10 01:03:43;;;;;;;8.30;6.40;;;18.10;70.00;;;;;;4973193;28;20054;-65
2023/06/10 01:06:26;;;;;;;7.72;6.15;;;18.00;70.10;;;;;;4985614;28;20068;-71
2023/06/10 01:08:58;;;;;;;7.70;6.50;;;18.00;70.20;;;;;;4984519;28;20105;-72
2023/06/10 01:11:30;;;;;;;8.02;6.25;;;17.90;70.40;;;;;;4978868;28;20078;-68
2023/06/10 01:14:00;;;;;;;7.10;5.88;;;17.90;70.50;;;;;;4959325;28;20410;-68
2023/06/10 01:16:28;;;;;;;9.27;7.22;;;17.90;70.60;;;;;;4958199;28;20051;-61
2023/06/10 01:18:55;;;;;;;9.18;6.47;;;17.80;70.70;;;;;;4977241;28;20046;-61
2023/06/10 01:21:26;;;;;;;8.43;6.60;;;17.80;70.70;;;;;;4971172;28;20055;-80
2023/06/10 01:23:55;;;;;;;7.85;6.18;;;17.80;70.70;;;;;;4966595;28;20791;-80
2023/06/10 01:26:26;;;;;;;8.65;7.13;;;17.70;70.90;;;;;;4981148;28;20449;-68
2023/06/10 01:28:59;;;;;;;8.38;6.63;;;17.70;71.10;;;;;;4996085;28;20524;-69
2023/06/10 01:31:39;;;;;;;7.53;6.50;;;17.70;71.20;;;;;;4996862;28;20046;-68
2023/06/10 01:34:08;;;;;;;;;;;17.70;71.10;;;;;;4993121;28;20038;-68
2023/06/10 01:36:38;;;;;;;8.23;7.15;;;17.60;71.50;;;;;;4978434;28;20429;-65
2023/06/10 01:39:06;;;;;;;9.88;7.45;;;17.60;71.70;;;;;;4975937;28;21521;-65
2023/06/10 01:41:34;;;;;;;10.63;7.80;;;17.60;71.90;;;;;;4991084;28;20038;-71
2023/06/10 01:44:02;;;;;;;9.48;7.75;;;17.60;72.00;;;;;;4985737;28;20128;-71
2023/06/10 01:46:29;;;;;;;10.55;8.10;;;17.60;72.00;;;;;;4988291;28;20521;-68
2023/06/10 01:48:57;;;;;;;9.45;7.43;;;17.60;71.80;;;;;;4953306;28;20051;-68
2023/06/10 01:51:24;;;;;;;9.23;7.68;;;17.60;71.70;;;;;;4984443;28;20437;-61
2023/06/10 01:53:52;;;;;;;10.88;7.78;;;17.60;71.60;;;;;;4980512;28;20054;-61
2023/06/10 01:56:20;;;;;;;;;;;17.60;71.70;;;;;;4987992;28;20054;-68
2023/06/10 01:58:47;;;;;;;7.97;6.30;;;17.50;71.70;;;;;;4976391;28;19925;-68
2023/06/10 02:01:15;;;;;;;7.85;6.63;;;17.50;71.60;;;;;;4974149;28;20490;-79
2023/06/10 02:03:42;;;;;;;8.50;6.57;;;17.40;71.60;;;;;;4989265;28;20095;-80
2023/06/10 02:06:09;;;;;;;8.95;6.55;;;17.40;71.80;;;;;;4988329;28;20054;-68
2023/06/10 02:08:36;;;;;;;7.80;6.53;;;17.30;72.00;;;;;;4985555;28;20069;-68
2023/06/10 02:11:06;;;;;;;8.77;6.82;;;17.30;72.20;;;;;;4992171;28;20038;-66
2023/06/10 02:13:33;;;;;;;;;;;17.20;72.20;;;;;;4991389;28;20054;-65
2023/06/10 02:16:00;;;;;;;8.52;6.70;;;17.20;72.30;;;;;;4996839;28;19922;-67
2023/06/10 02:18:30;;;;;;;7.88;6.80;;;17.20;72.40;;;;;;4979387;28;20417;-64
2023/06/10 02:20:57;;;;;;;8.20;6.85;;;17.20;72.50;;;;;;4988398;28;20064;-69
2023/06/10 02:23:23;;;;;;;9.77;7.90;;;17.10;72.60;;;;;;4988403;28;20139;-68
2023/06/10 02:25:50;;;;;;;7.78;6.82;;;17.10;72.80;;;;;;4995011;28;20052;-80
2023/06/10 02:28:19;;;;;;;8.73;7.22;;;17.10;72.80;;;;;;4995851;28;20046;-83
2023/06/10 02:30:47;;;;;;;8.90;7.65;;;17.10;72.80;;;;;;4995576;28;20050;-67
2023/06/10 02:33:14;;;;;;;9.27;7.15;;;17.10;72.90;;;;;;4984240;28;20051;-68
2023/06/10 02:35:42;;;;;;;8.70;7.63;;;17.10;73.00;;;;;;4978574;28;20050;-76
2023/06/10 02:38:09;;;;;;;10.15;7.40;;;17.00;73.10;;;;;;4993659;28;20572;-76
2023/06/10 02:40:36;;;;;;;8.68;7.07;;;17.00;73.10;;;;;;4975005;28;20081;-70
2023/06/10 02:43:03;;;;;;;8.77;7.03;;;17.00;73.20;;;;;;4989979;28;20057;-72
2023/06/10 02:45:33;;;;;;;9.45;7.25;;;17.00;73.30;;;;;;4975396;28;20048;-72
2023/06/10 02:48:01;;;;;;;8.35;7.15;;;16.90;73.30;;;;;;4976713;28;20069;-72
2023/06/10 02:50:28;;;;;;;9.20;7.43;;;16.90;73.30;;;;;;4974516;28;20123;-83
2023/06/10 02:53:10;;;;;;;8.38;7.50;;;16.80;73.50;;;;;;4989272;28;20062;-81
2023/06/10 02:55:40;;;;;;;10.55;7.50;;;16.80;73.60;;;;;;4977484;28;20585;-77
2023/06/10 02:58:11;;;;;;;9.30;6.97;;;16.80;73.60;;;;;;4975135;28;20061;-76
2023/06/10 03:00:41;;;;;;;9.18;7.45;;;16.80;73.70;;;;;;4967676;28;20058;-68
2023/06/10 03:03:10;;;;;;;10.30;8.25;;;16.70;73.90;;;;;;4989438;28;20058;-69
2023/06/10 03:05:45;;;;;;;9.45;7.75;;;16.70;74.00;;;;;;4978532;28;20050;-70
2023/06/10 03:08:13;;;;;;;11.13;8.35;;;16.70;74.10;;;;;;4969807;28;20054;-70
2023/06/10 03:10:42;;;;;;;9.40;8.32;;;16.70;74.00;;;;;;4977567;28;20169;-69
2023/06/10 03:13:11;;;;;;;11.13;8.45;;;16.80;73.80;;;;;;4986532;28;20054;-69
2023/06/10 03:15:40;;;;;;;10.10;7.90;;;16.80;73.60;;;;;;4973770;28;20049;-78
2023/06/10 03:18:10;;;;;;;10.00;8.10;;;16.80;73.70;;;;;;4974590;28;20043;-78
2023/06/10 03:20:37;;;;;;;9.55;7.63;;;16.80;73.90;;;;;;4977565;28;20053;-76
2023/06/10 03:23:06;;;;;;;10.20;7.65;;;16.70;74.00;;;;;;4977677;28;20062;-76
2023/06/10 03:25:34;;;;;;;9.50;7.75;;;16.70;74.00;;;;;;4972851;28;20430;-76
2023/06/10 03:28:01;;;;;;;10.05;7.75;;;16.70;74.10;;;;;;4975267;28;20050;-76
2023/06/10 03:30:29;;;;;;;8.15;7.30;;;16.60;74.10;;;;;;4971069;28;20061;-70
2023/06/10 03:32:57;;;;;;;8.32;7.38;;;16.60;74.30;;;;;;4984096;28;20049;-70
2023/06/10 03:35:27;;;;;;;9.43;7.88;;;16.60;74.30;;;;;;4993777;28;20070;-69
2023/06/10 03:37:54;;;;;;;8.45;7.55;;;16.60;74.50;;;;;;4976433;28;20053;-69
2023/06/10 03:40:21;;;;;;;9.13;7.95;;;16.60;74.60;;;;;;4973915;28;20097;-66
2023/06/10 03:42:48;;;;;;;8.50;7.57;;;16.60;74.20;;;;;;4992238;28;20100;-66
2023/06/10 03:45:17;;;;;;;11.83;7.70;;;16.60;74.30;;;;;;4972459;28;20153;-66
2023/06/10 03:47:47;;;;;;;8.32;7.32;;;16.60;74.30;;;;;;4979222;28;20454;-65
2023/06/10 03:50:17;;;;;;;8.77;7.30;;;16.60;74.40;;;;;;4975657;28;20053;-65
2023/06/10 03:52:46;;;;;;;9.10;7.32;;;16.60;74.40;;;;;;4972786;28;20121;-66
2023/06/10 03:55:16;;;;;;;9.55;7.88;;;16.60;74.50;;;;;;4977746;28;20085;-65
2023/06/10 03:57:45;;;;;;;8.90;7.75;;;16.60;74.50;;;;;;4975924;28;20413;-65
2023/06/10 04:00:13;;;;;;;9.18;7.72;;;16.50;74.60;;;;;;4995161;28;20077;-66
2023/06/10 04:02:45;;;;;;;10.40;7.75;;;16.50;74.60;;;;;;4994138;28;20056;-65
2023/06/10 04:05:20;;;;;;;8.48;7.10;;;16.40;74.70;;;;;;4979594;28;20050;-65
2023/06/10 04:07:48;;;;;;;9.13;7.28;;;16.40;74.90;;;;;;4998791;28;20073;-65
2023/06/10 04:10:15;;;;;;;9.48;7.50;;;16.40;75.00;;;;;;4978019;28;20074;-65
2023/06/10 04:12:43;;;;;;;8.98;6.93;;;16.40;74.90;;;;;;4977759;28;20137;-65
2023/06/10 04:15:10;;;;;;;8.20;7.25;;;16.40;75.10;;;;;;4976356;28;20042;-65
2023/06/10 04:17:38;;;;;;;8.68;7.50;;;16.40;75.10;;;;;;4994281;28;20516;-69
2023/06/10 04:20:07;;;;;;;8.27;7.13;;;16.50;75.20;;;;;;4978469;28;20062;-68
2023/06/10 04:22:37;;;;;;;9.40;7.63;;;16.50;75.10;;;;;;4995677;28;20045;-70
2023/06/10 04:25:05;;;;;;;8.88;7.45;;;16.50;75.10;;;;;;4977727;28;20058;-70
2023/06/10 04:27:32;;;;;;;8.73;7.43;;;16.50;75.10;;;;;;4978676;28;20050;-70
2023/06/10 04:29:59;;;;;;;10.05;7.40;;;16.50;74.80;;;;;;4996059;28;20038;-70
2023/06/10 04:32:26;;;;;;;8.35;7.18;;;16.60;74.70;;;;;;4970443;28;20058;-68
2023/06/10 04:34:53;;;;;;;8.98;7.20;;;16.60;74.60;;;;;;4979904;28;20137;-68
2023/06/10 04:37:20;;;;;;;10.60;7.03;;;16.60;74.50;;;;;;4998277;28;20053;-69
2023/06/10 04:39:49;;;;;;;10.25;7.85;;;16.60;74.60;;;;;;4976083;28;20165;-68
2023/06/10 04:42:16;;;;;;;9.80;7.85;;;16.60;74.60;;;;;;4988202;28;20050;-68
2023/06/10 04:44:43;;;;;;;10.48;7.80;;;16.60;74.90;;;;;;4991448;28;20062;-68
2023/06/10 04:47:11;;;;;;;9.30;7.80;;;16.60;75.00;;;;;;4978475;28;20061;-69
2023/06/10 04:49:39;;;;;;;10.48;8.48;;;16.70;74.80;;;;;;4978380;28;20494;-70
2023/06/10 04:52:06;;;;;;;9.35;7.75;;;16.70;74.60;;;;;;4980271;28;20038;-75
2023/06/10 04:54:38;;;;;;;9.98;8.50;;;16.80;74.60;;;;;;4979779;28;20105;-76
2023/06/10 04:57:08;;;;;;;9.27;7.85;;;16.90;74.50;;;;;;4995666;28;20042;-75
2023/06/10 04:59:37;;;;;;;8.93;7.57;;;16.90;74.50;;;;;;4991104;28;20140;-75
2023/06/10 05:02:04;;;;;;;9.90;7.97;;;17.00;74.20;;;;;;4998425;28;20070;-84
2023/06/10 05:04:31;;;;;;;10.77;8.48;;;17.00;74.40;;;;;;4997264;28;20519;-83
2023/06/10 05:06:58;;;;;;;9.02;7.93;;;17.00;74.30;;;;;;4981023;28;20053;-70
2023/06/10 05:09:25;;;;;;;8.93;7.45;;;17.00;74.70;;;;;;4997991;28;20046;-69
2023/06/10 05:11:53;;;;;;;10.60;7.75;;;17.10;74.80;;;;;;4995688;28;20081;-70
2023/06/10 05:14:21;;;;;;;9.75;7.68;;;17.10;74.70;;;;;;4996374;28;20054;-69
2023/06/10 05:16:48;;;;;;;9.80;7.20;;;17.10;74.70;;;;;;4992262;28;20046;-70
2023/06/10 05:19:18;;;;;;;10.20;7.65;;;17.20;74.60;;;;;;4994075;28;20473;-69
2023/06/10 05:21:45;;;;;;;8.77;7.13;;;17.20;74.60;;;;;;4996359;28;20054;-70
2023/06/10 05:24:12;;;;;;;8.98;7.28;;;17.20;74.70;;;;;;4994708;28;20153;-70
2023/06/10 05:26:40;;;;;;;9.52;7.20;;;17.20;74.40;;;;;;4995855;28;20133;-70
2023/06/10 05:29:09;;;;;;;8.45;7.53;;;17.30;74.30;;;;;;4993161;28;20041;-70
2023/06/10 05:31:37;;;;;;;9.65;7.63;;;17.40;74.30;;;;;;4995701;28;20069;-84
2023/06/10 05:34:04;;;;;;;9.02;7.38;;;17.40;74.20;;;;;;4998553;28;20053;-83
2023/06/10 05:36:31;;;;;;;9.73;7.70;;;17.40;73.80;;;;;;4993210;28;20477;-69
2023/06/10 05:38:57;;;;;;;11.20;7.65;;;17.40;73.90;;;;;;4995298;28;20136;-68
2023/06/10 05:41:25;;;;;;;9.60;8.13;;;17.50;73.40;;;;;;4995244;28;20064;-65
2023/06/10 05:43:52;;;;;;;8.63;7.72;;;17.50;73.00;;;;;;4995709;28;20129;-65
2023/06/10 05:46:19;;;;;;;9.57;7.30;;;17.50;72.40;;;;;;4994301;28;20047;-65
2023/06/10 05:48:47;;;;;;;10.73;7.55;;;17.60;72.20;;;;;;4994031;28;20417;-65
2023/06/10 05:51:16;;;;;;;10.68;7.47;;;17.60;72.00;;;;;;4994761;28;20054;-65
2023/06/10 05:53:43;;;;;;;11.80;7.50;;;17.60;72.40;;;;;;4994628;28;20053;-65
2023/06/10 05:56:09;;;;;;;9.63;6.95;;;17.70;72.10;;;;;;4996223;28;20053;-64
2023/06/10 05:58:36;;;;;;;8.10;6.88;;;17.70;72.20;;;;;;4993558;28;20087;-62
2023/06/10 06:01:03;;;;;;;8.80;7.32;;;17.80;72.00;;;;;;4996306;28;20077;-65
2023/06/10 06:03:30;;;;;;;8.88;6.82;;;17.80;71.50;;;;;;4994112;28;20042;-65
2023/06/10 06:05:58;;;;;;;8.13;6.50;;;17.80;71.50;;;;;;4993411;28;20052;-69
2023/06/10 06:08:25;;;;;;;8.35;6.93;;;17.90;71.80;;;;;;4992640;28;20037;-70
2023/06/10 06:10:52;;;;;;;8.32;7.15;;;17.90;71.30;;;;;;4997806;28;20568;-62
2023/06/10 06:13:19;;;;;;;9.60;6.93;;;17.90;71.60;;;;;;4989893;28;20124;-62
2023/06/10 06:15:46;;;;;;;8.60;7.10;;;18.00;71.30;;;;;;4994771;28;20045;-62
2023/06/10 06:18:13;;;;;;;9.68;6.72;;;18.10;71.40;;;;;;4992589;28;20050;-62
2023/06/10 06:20:39;;;;;;;10.75;7.15;;;18.20;71.20;;;;;;4996898;28;20053;-70
2023/06/10 06:23:09;;;;;;;8.90;7.55;;;18.30;71.00;;;;;;4992947;28;20061;-70
2023/06/10 06:25:38;;;;;;;7.78;6.82;;;18.40;71.00;;;;;;4981300;28;20108;-70
2023/06/10 06:28:06;;;;;;;8.85;7.15;;;18.50;70.80;;;;;;4992069;28;20141;-70
2023/06/10 06:30:35;;;;;;;10.05;7.45;;;18.60;70.50;;;;;;4995219;28;20457;-70
2023/06/10 06:33:02;;;;;;;10.63;7.15;;;18.60;70.00;;;;;;4997900;28;20623;-70
2023/06/10 06:35:31;;;;;;;9.30;7.30;;;18.80;69.60;;;;;;4975637;28;20104;-63
2023/06/10 06:37:58;;;;;;;7.57;6.65;;;19.00;69.20;;;;;;4972496;28;20053;-62
2023/06/10 06:40:29;;;;;;;8.48;7.10;;;19.10;68.70;;;;;;4974089;28;20490;-65
2023/06/10 06:42:56;;;;;;;9.15;6.88;;;19.30;68.50;;;;;;4996934;28;20050;-65
2023/06/10 06:45:35;;;;;;;8.55;6.70;;;19.40;68.00;;;;;;4997038;28;20077;-65
2023/06/10 06:48:02;;;;;;;8.15;6.45;;;19.60;67.80;;;;;;4994382;28;20057;-65
2023/06/10 06:50:29;;;;;;;9.70;7.10;;;19.70;67.60;;;;;;4993527;28;20050;-65
2023/06/10 06:52:56;;;;;;;8.27;6.57;;;19.90;67.20;;;;;;4995665;28;20136;-65
2023/06/10 06:55:23;;;;;;;8.63;6.90;;;20.10;66.60;;;;;;4992238;28;20129;-74
2023/06/10 06:57:51;;;;;;;8.68;6.60;;;20.20;66.20;;;;;;4990016;28;20061;-75
2023/06/10 07:00:19;;;;;;;7.80;6.40;;;20.40;65.60;;;;;;4992517;28;20457;-75
2023/06/10 07:02:46;;;;;;;9.48;6.72;;;20.50;65.50;;;;;;4995132;28;20405;-76
2023/06/10 07:05:13;;;;;;;7.70;6.72;;;20.60;64.90;;;;;;4993275;28;20046;-74
2023/06/10 07:07:39;;;;;;;8.90;6.75;;;20.80;64.70;;;;;;4992160;28;20064;-68
2023/06/10 07:10:07;;;;;;;8.63;6.85;;;21.00;64.40;;;;;;4995726;28;20066;-68
2023/06/10 07:12:34;;;;;;;8.00;6.60;;;21.20;64.00;;;;;;4994787;28;20061;-68
2023/06/10 07:15:03;;;;;;;8.00;6.85;;;21.40;63.50;;;;;;4993290;28;20308;-69
2023/06/10 07:17:30;;;;;;;10.85;6.70;;;21.60;63.30;;;;;;4991232;28;20050;-70
2023/06/10 07:19:57;;;;;;;7.63;6.30;;;21.60;63.00;;;;;;4997344;28;21362;-70
2023/06/10 07:22:24;;;;;;;8.18;6.28;;;21.70;62.80;;;;;;4998196;28;20515;-66
2023/06/10 07:24:51;;;;;;;8.00;6.35;;;22.00;62.50;;;;;;4979303;28;20054;-66
2023/06/10 07:27:18;;;;;;;8.98;6.43;;;22.10;62.40;;;;;;4996475;28;20097;-70
2023/06/10 07:29:46;;;;;;;9.88;6.75;;;22.30;61.60;;;;;;4985608;28;20045;-70
2023/06/10 07:32:14;;;;;;;8.45;6.25;;;22.40;61.00;;;;;;4995921;28;20046;-74
2023/06/10 07:34:41;;;;;;;8.68;6.30;;;22.60;60.50;;;;;;4997651;28;20050;-73
2023/06/10 07:37:08;;;;;;;9.52;6.60;;;22.80;59.80;;;;;;4998022;28;20052;-69
2023/06/10 07:39:35;;;;;;;7.60;6.45;;;23.00;59.20;;;;;;4998590;28;20072;-69
2023/06/10 07:42:02;;;;;;;9.45;6.18;;;23.20;58.50;;;;;;4996727;28;20048;-86
2023/06/10 07:44:30;;;;;;;7.50;6.10;;;23.40;58.40;;;;;;4983089;28;20054;-87
2023/06/10 07:46:58;;;;;;;9.25;6.15;;;23.50;58.10;;;;;;4995142;28;20046;-87
2023/06/10 07:49:26;;;;;;;8.32;6.30;;;23.60;57.60;;;;;;4979708;28;20043;-87
2023/06/10 07:51:55;;;;;;;8.55;5.65;;;23.80;56.90;;;;;;4983169;28;20046;-88
2023/06/10 07:54:22;;;;;;;8.05;6.10;;;24.00;56.70;;;;;;4995350;28;20572;-87
2023/06/10 07:56:49;;;;;;;8.60;5.75;;;24.00;56.70;;;;;;5002656;28;20050;-87
2023/06/10 07:59:17;;;;;;;8.23;6.20;;;24.10;56.70;;;;;;4997753;28;20056;-89
2023/06/10 08:01:43;;;;;;;9.25;5.63;;;24.20;55.90;;;;;;5002726;28;20955;-89
2023/06/10 08:04:10;;;;;;;7.75;5.88;;;24.40;56.30;;;;;;5011041;28;20054;-82
2023/06/10 08:06:39;;;;;;;11.85;6.15;;;24.50;55.70;;;;;;5013177;28;20058;-87
2023/06/10 08:09:06;;;;;;;7.28;5.90;;;24.60;55.30;;;;;;5007098;28;20050;-86
2023/06/10 08:11:33;;;;;;;9.60;6.38;;;24.80;55.20;;;;;;5001789;28;20043;-88
2023/06/10 08:13:59;;;;;;;7.13;5.95;;;25.00;54.30;;;;;;5010770;28;20295;-89
2023/06/10 08:16:26;;;;;;;6.90;5.97;;;25.00;54.10;;;;;;5010348;28;20058;-89
2023/06/10 08:18:53;;;;;;;8.95;5.80;;;25.10;53.50;;;;;;5005968;28;20524;-85
2023/06/10 08:21:20;;;;;;;7.05;5.68;;;25.20;53.90;;;;;;5003094;28;20109;-88
2023/06/10 08:23:49;;;;;;;8.25;6.18;;;25.30;53.90;;;;;;5003691;28;20497;-90
2023/06/10 08:26:15;;;;;;;7.78;6.35;;;25.50;53.50;;;;;;5007788;28;20564;-90
2023/06/10 08:28:42;;;;;;;8.10;6.05;;;25.60;53.10;;;;;;5008624;28;20045;-91
2023/06/10 08:31:09;;;;;;;6.93;6.03;;;25.70;53.10;;;;;;4990662;28;20417;-69
2023/06/10 08:33:36;;;;;;;7.25;6.03;;;25.80;53.10;;;;;;4995486;28;20050;-70
2023/06/10 08:36:03;;;;;;;7.05;5.60;;;25.80;53.30;;;;;;4995268;28;20046;-74
2023/06/10 08:38:30;;;;;;;7.63;5.78;;;26.00;53.20;;;;;;4995501;28;20046;-74
2023/06/10 08:41:01;;;;;;;7.65;6.13;;;26.10;52.70;;;;;;4998184;28;20225;-74
2023/06/10 08:43:34;;;;;;;7.60;6.28;;;26.20;53.00;;;;;;4995399;28;20409;-74
2023/06/10 08:46:02;;;;;;;7.00;5.80;;;26.30;52.20;;;;;;4997407;28;20046;-66
2023/06/10 08:48:31;;;;;;;7.90;5.95;;;26.40;52.10;;;;;;4993480;28;20054;-66
2023/06/10 08:50:59;;;;;;;9.02;6.50;;;26.60;52.00;;;;;;4977250;28;20615;-66
2023/06/10 08:53:28;;;;;;;7.82;5.88;;;26.60;51.80;;;;;;4996178;28;20861;-66
2023/06/10 08:56:01;;;;;;;8.38;6.07;;;26.70;51.50;;;;;;4996781;28;20075;-70
2023/06/10 08:58:29;;;;;;;7.30;5.88;;;26.80;51.90;;;;;;4995662;28;20070;-70
2023/06/10 09:00:56;;;;;;;6.32;5.40;;;26.90;51.40;;;;;;4996840;28;20050;-64
2023/06/10 09:03:25;;;;;;;6.75;5.88;;;27.10;51.10;;;;;;4996279;28;20049;-63
2023/06/10 09:05:52;;;;;;;7.03;5.78;;;27.20;50.10;;;;;;4982641;28;20125;-62
2023/06/10 09:08:19;;;;;;;7.07;5.95;;;27.30;50.30;;;;;;4990490;28;20094;-63
2023/06/10 09:10:47;;;;;;;7.72;6.18;;;27.30;50.40;;;;;;4967621;28;20174;-63
2023/06/10 09:13:18;;;;;;;7.68;5.55;;;27.40;50.20;;;;;;4994505;28;20054;-63
2023/06/10 09:15:45;;;;;;;6.82;5.60;;;27.60;49.90;;;;;;4994443;28;20556;-63
2023/06/10 09:18:13;;;;;;;7.13;5.85;;;27.70;49.00;;;;;;4996582;28;20069;-63
2023/06/10 09:20:40;;;;;;;7.53;5.47;;;27.80;48.80;;;;;;4996539;28;20054;-69
2023/06/10 09:23:07;;;;;;;6.40;5.70;;;27.90;48.70;;;;;;4997566;28;20081;-69
2023/06/10 09:25:39;;;;;;;8.40;5.95;;;28.00;48.70;;;;;;4996692;28;20042;-67
2023/06/10 09:28:13;;;;;;;8.90;5.68;;;28.10;47.90;;;;;;4993118;28;20058;-70
2023/06/10 09:30:42;;;;;;;7.15;5.65;;;28.20;47.40;;;;;;4996813;28;20132;-68
2023/06/10 09:33:12;;;;;;;7.50;5.38;;;28.20;47.50;;;;;;4997911;28;20142;-69
2023/06/10 09:35:46;;;;;;;5.80;4.93;;;28.20;46.40;;;;;;4992744;28;20057;-70
2023/06/10 09:38:15;;;;;;;6.80;4.78;;;28.40;46.90;;;;;;4994530;28;20047;-69
2023/06/10 09:40:51;;;;;;;6.70;5.13;;;28.40;47.40;;;;;;4995591;28;20059;-69
2023/06/10 09:43:18;;;;;;;6.68;5.13;;;28.50;47.20;;;;;;4995683;28;20077;-69
2023/06/10 09:45:49;;;;;;;8.10;5.30;;;28.50;46.90;;;;;;4987985;28;20512;-69
2023/06/10 09:48:16;;;;;;;8.93;5.72;;;28.70;47.10;;;;;;4983467;28;20466;-69
2023/06/10 09:50:44;;;;;;;6.88;5.40;;;28.60;46.90;;;;;;4993993;28;20050;-69
2023/06/10 09:53:11;;;;;;;6.15;5.18;;;28.60;46.50;;;;;;4996031;28;20093;-68
2023/06/10 09:55:39;;;;;;;7.13;5.60;;;28.80;46.30;;;;;;4995201;28;20065;-82
2023/06/10 09:58:06;;;;;;;7.10;5.32;;;28.80;46.60;;;;;;4983057;28;20107;-81
2023/06/10 10:00:33;;;;;;;6.72;5.05;;;28.80;46.40;;;;;;4986333;28;20042;-82
2023/06/10 10:03:03;;;;;;;7.10;5.65;;;28.80;46.50;;;;;;4997480;28;20053;-83
2023/06/10 10:05:30;;;;;;;8.25;5.78;;;29.00;46.40;;;;;;4994853;28;20137;-81
2023/06/10 10:07:57;;;;;;;7.95;5.75;;;29.00;46.20;;;;;;4996076;28;20124;-82
2023/06/10 10:10:24;;;;;;;7.63;5.47;;;29.10;46.20;;;;;;4996205;28;20489;-82
2023/06/10 10:12:56;;;;;;;7.82;5.50;;;29.20;46.10;;;;;;4995780;28;20050;-82
2023/06/10 10:15:26;;;;;;;9.50;5.45;;;29.30;45.40;;;;;;4997090;28;20069;-82
2023/06/10 10:17:56;;;;;;;7.13;5.30;;;29.50;45.50;;;;;;4990438;28;20061;-81
2023/06/10 10:20:30;;;;;;;6.90;5.32;;;29.60;44.80;;;;;;4986652;28;20109;-81
2023/06/10 10:22:58;;;;;;;8.50;5.93;;;29.60;44.80;;;;;;4999338;28;20077;-81
2023/06/10 10:25:29;;;;;;;8.07;5.88;;;29.70;44.00;;;;;;4996844;28;20061;-82
2023/06/10 10:27:59;;;;;;;7.03;5.63;;;29.70;44.20;;;;;;4998367;28;20074;-82
2023/06/10 10:30:28;;;;;;;7.45;5.40;;;29.70;43.90;;;;;;4997397;28;20050;-70
2023/06/10 10:32:59;;;;;;;6.47;5.00;;;29.80;43.80;;;;;;4998265;28;20066;-69
2023/06/10 10:35:28;;;;;;;7.28;5.10;;;29.80;44.00;;;;;;4989593;28;20054;-69
2023/06/10 10:37:55;;;;;;;7.75;5.65;;;29.90;43.80;;;;;;4992620;28;20058;-69
2023/06/10 10:40:23;;;;;;;7.80;5.45;;;30.00;44.00;;;;;;4979818;28;20058;-69
2023/06/10 10:42:51;;;;;;;6.95;5.10;;;30.00;43.60;;;;;;4994821;28;20128;-68
2023/06/10 10:45:18;;;;;;;7.05;5.97;;;30.10;43.60;;;;;;4973940;28;20064;-69
2023/06/10 10:47:46;;;;;;;6.63;5.18;;;30.20;43.80;;;;;;4993049;28;20051;-69
2023/06/10 10:50:18;;;;;;;9.32;5.30;;;30.20;43.30;;;;;;4993484;28;20050;-68
2023/06/10 10:52:54;;;;;;;6.60;5.05;;;30.30;42.90;;;;;;4979175;28;20073;-69
2023/06/10 10:55:22;;;;;;;6.32;5.30;;;30.30;42.90;;;;;;4995700;28;20054;-69
2023/06/10 10:57:56;;;;;;;7.55;5.30;;;30.30;42.60;;;;;;4996692;28;20037;-69
2023/06/10 11:00:30;;;;;;;5.80;4.90;;;30.30;42.60;;;;;;4978797;28;20050;-69
2023/06/10 11:03:17;;;;;;;6.20;5.15;;;30.30;41.30;;;;;;4976763;28;20165;-69
2023/06/10 11:05:47;;;;;;;6.70;5.20;;;30.30;41.70;;;;;;4976943;28;20061;-69
2023/06/10 11:08:16;;;;;;;7.28;4.97;;;30.10;41.60;;;;;;4999817;28;20053;-69
2023/06/10 11:10:52;;;;;;;8.77;4.90;;;29.80;41.00;;;;;;4999103;28;20062;-69
2023/06/10 11:13:21;;;;;;;7.13;4.72;;;29.80;40.10;;;;;;4999854;28;20047;-69
2023/06/10 11:15:49;;;;;;;6.40;4.45;;;29.90;40.10;;;;;;5000364;28;20050;-69
2023/06/10 11:18:21;;;;;;;6.85;4.90;;;29.80;39.90;;;;;;4998531;28;20576;-68
2023/06/10 11:20:59;;;;;;;7.32;5.60;;;29.70;40.10;;;;;;5000430;28;20060;-68
2023/06/10 11:23:52;;;;;;;6.18;5.00;;;29.50;40.00;;;;;;5000710;28;20054;-68
2023/06/10 11:26:34;;;;;;;7.28;4.97;;;29.60;39.90;;;;;;4959087;28;20133;-68
2023/06/10 11:29:09;;;;;;;6.65;5.53;;;29.40;40.20;;;;;;4993637;28;20046;-69
2023/06/10 11:31:50;;;;;;;6.47;5.00;;;29.30;40.70;;;;;;4999689;28;20053;-68
2023/06/10 11:34:24;;;;;;;5.93;4.97;;;29.60;39.80;;;;;;4999087;28;20453;-68
2023/06/10 11:36:52;;;;;;;6.75;4.53;;;29.60;40.70;;;;;;4993067;28;20562;-68
2023/06/10 11:39:23;;;;;;;6.53;5.30;;;29.50;40.20;;;;;;4982979;28;20050;-68
2023/06/10 11:41:52;;;;;;;8.13;5.43;;;29.30;40.20;;;;;;4990501;28;20050;-69
2023/06/10 11:44:19;;;;;;;6.68;5.32;;;29.10;40.50;;;;;;4986272;28;20049;-67
2023/06/10 11:46:49;;;;;;;7.50;6.30;;;29.10;40.80;;;;;;5000066;28;20113;-68
2023/06/10 11:49:16;;;;;;;7.97;6.93;;;29.10;41.50;;;;;;5000978;28;20050;-69
2023/06/10 11:51:48;;;;;;;8.07;6.65;;;29.10;40.70;;;;;;4997871;28;20055;-69
2023/06/10 11:54:17;;;;;;;7.75;6.05;;;29.00;40.90;;;;;;5000173;28;20050;-69
2023/06/10 11:56:45;;;;;;;6.77;5.20;;;29.00;40.00;;;;;;4982764;28;20457;-69
2023/06/10 11:59:12;;;;;;;6.13;4.55;;;29.10;39.70;;;;;;5000457;28;20821;-68
2023/06/10 12:01:43;;;;;;;6.57;4.80;;;29.10;40.70;;;;;;4990301;28;20391;-69
2023/06/10 12:04:12;;;;;;;6.50;4.35;;;29.10;39.80;;;;;;4998584;28;20456;-68
2023/06/10 12:06:40;;;;;;;4.65;4.00;;;29.00;39.80;;;;;;4998822;28;20493;-68
2023/06/10 12:09:08;;;;;;;7.22;4.25;;;29.00;40.00;;;;;;4999950;28;20072;-68
2023/06/10 12:11:36;;;;;;;5.22;4.32;;;29.30;40.10;;;;;;4998954;28;20096;-68
2023/06/10 12:14:04;;;;;;;6.07;4.60;;;29.60;40.30;;;;;;5000275;28;20053;-68
2023/06/10 12:16:31;;;;;;;6.70;5.10;;;29.80;40.50;;;;;;4992139;28;20421;-68
2023/06/10 12:19:03;;;;;;;7.35;5.03;;;30.00;39.80;;;;;;4992602;28;20058;-69
2023/06/10 12:21:31;;;;;;;7.28;6.47;;;30.20;38.70;;;;;;4995826;28;20054;-68
2023/06/10 12:24:02;;;;;;;12.30;10.50;;;30.00;40.00;;;;;;4997939;28;20042;-69
2023/06/10 12:26:39;;;;;;;8.35;7.15;;;29.80;39.20;;;;;;4998332;28;20070;-68
2023/06/10 12:29:22;;;;;;;6.20;5.38;;;29.60;38.40;;;;;;4999211;28;20054;-68
2023/06/10 12:31:57;;;;;;;5.70;4.05;;;29.40;38.00;;;;;;4992794;28;20145;-79
2023/06/10 12:34:32;;;;;;;5.10;3.72;;;29.40;37.20;;;;;;4990596;28;20093;-79
2023/06/10 12:36:59;;;;;;;5.18;3.33;;;29.40;38.00;;;;;;4995955;28;20050;-79
2023/06/10 12:39:26;;;;;;;4.22;3.30;;;29.60;38.10;;;;;;4989157;28;20065;-79
2023/06/10 12:41:53;;;;;;;6.30;3.30;;;29.70;36.70;;;;;;4999797;28;20060;-69
2023/06/10 12:44:30;;;;;;;5.00;3.00;;;29.90;38.20;;;;;;4994075;28;20053;-68
2023/06/10 12:46:57;;;;;;;4.82;3.55;;;29.90;37.60;;;;;;4999119;28;20050;-69
2023/06/10 12:49:24;;;;;;;6.47;3.75;;;30.10;37.50;;;;;;4996895;28;20043;-68
2023/06/10 12:51:51;;;;;;;5.07;3.75;;;30.00;37.60;;;;;;4998228;28;20056;-68
2023/06/10 12:54:18;;;;;;;5.03;3.50;;;30.00;37.50;;;;;;4997725;28;20060;-70